EDDMEDMA

Guest
Details From EDDM - Muenchen Franz-Josef Strauss
To EDMA - Augsburg
Flight Number -
Tags decoded
Created
Modified
Stats Distance 62 nm / 115 km
Max Altitude 0 ft / 0 m
Waypoints 4
Social Downloads 1
Likes 0
Share VATSIM

Download

Looking for another format? Having issues loading an existing format? Contact us
Advertisement - Login to hide

Notes

Requested: EDDM MAH AMEXO ALG EDMA

Route

EDDM MAH AMEXO EDMA

ID Type Via Altitude Latitude Longitude Leg Dist Tot Dist Heading (true) Name
O EDDM APT - 0 ft / 0 m 48.35379˚ 11.78612˚ - 0 nm - Muenchen Franz-Josef Strauss
MAH VOR - 0 ft / 0 m 48.26343˚ 11.31193˚ 19 nm 19 nm 254° / 254° MAISACH VOR-DME
AMEXO FIX - 0 ft / 0 m 48.10167˚ 10.80333˚ 22 nm 42 nm 245° / 244° -
O EDMA APT - 0 ft / 0 m 48.42424˚ 10.93428˚ 20 nm 62 nm 15° / 15° Augsburg

Altitude Profile

Advertisement - Login to hide

EDDM

Details ICAO EDDM (MUC)
Name Muenchen Franz-Josef Strauss
Region Germany - Civil
Timezone Europe/Berlin (UTC+1.0)
Stats Elevation 1,487 ft / 453 m (AMSL)
Location 48.353786° 11.786117°
Runways 2
Magnetic Variation 3.161° E

METAR

EDDM 132220Z 18007KT 9999 FEW032 SCT060 BKN080 02/M04 Q1000 NOSIG

Decode

TAF

TAF EDDM 131700Z 1318/1424 17008KT 9999 BKN045 TEMPO 1319/1322 4000 -SN BECMG 1401/1403 24015G30KT TEMPO 1401/1405 RA BKN012 TEMPO 1405/1408 3000 SHRAGS BKN040CB TEMPO 1406/1411 26020G45KT BECMG 1416/1418 22010KT TEMPO 1419/1424 4000 SHRASN BKN020TCU

Decode

Departure Runways

ID Width Length Bearing (true) Bearing (mag) Surface Threshold Offset Overrun Length
08L 197 ft / 60 m 13,086 ft / 3,989 m 83.38° 80.22° Concrete 0 ft / 0 m 0 ft / 0 m
08R 197 ft / 60 m 13,086 ft / 3,989 m 83.37° 80.21° Concrete 0 ft / 0 m 0 ft / 0 m
26L 197 ft / 60 m 13,086 ft / 3,989 m 263.41° 260.25° Concrete 0 ft / 0 m 0 ft / 0 m
26R 197 ft / 60 m 13,086 ft / 3,989 m 263.42° 260.26° Concrete 0 ft / 0 m 0 ft / 0 m

EDMA

Details ICAO EDMA (AGB)
Name Augsburg
Region Germany - Civil
Timezone Europe/Berlin (UTC+1.0)
Stats Elevation 1,515 ft / 462 m (AMSL)
Location 48.424245° 10.934277°
Runways 2
Magnetic Variation 2.954° E

METAR

EDMA 132220Z AUTO 18009KT 9999 // BKN052/// OVC089/// 03/M00 Q0999

Decode

TAF

Not found

Destination Runways

ID Width Length Bearing (true) Bearing (mag) Surface Threshold Offset Overrun Length
07 98 ft / 30 m 4,186 ft / 1,276 m 71.38° 68.43° Asphalt 0 ft / 0 m 164 ft / 50 m
07L 100 ft / 30 m 3,320 ft / 1,012 m 71.47° 68.52° Grass 0 ft / 0 m 0 ft / 0 m
25 98 ft / 30 m 4,186 ft / 1,276 m 251.39° 248.44° Asphalt 0 ft / 0 m 164 ft / 50 m
25R 100 ft / 30 m 3,320 ft / 1,012 m 251.48° 248.53° Grass 0 ft / 0 m 0 ft / 0 m

Approach Navaids

Runway Type Ident Frequency Range Bearing (true) Bearing (mag) Slope Elevation
25 Localiser AUG 108.50 MHz 18 nm / 33 km 251.39° 248.43° - 1,510 ft / 460 m (AMSL)
25 Glidescope AUG 108.50 MHz 10 nm / 19 km 251.39° 248.43° 3.50° 1,515 ft / 462 m (AMSL)

Popular Alternatives